sensor_id;sensor_type;location;lat;lon;timestamp;pressure;altitude;pressure_sealevel;temperature;humidity
68994;BME280;56054;50.968;5.816;2023-05-12T00:01:24;100693.69;;;14.07;100.00
68994;BME280;56054;50.968;5.816;2023-05-12T00:04:25;100694.84;;;14.12;100.00
68994;BME280;56054;50.968;5.816;2023-05-12T00:07:25;100694.31;;;14.01;100.00
68994;BME280;56054;50.968;5.816;2023-05-12T00:10:27;100701.47;;;13.87;100.00
68994;BME280;56054;50.968;5.816;2023-05-12T00:13:27;100689.16;;;13.85;100.00
68994;BME280;56054;50.968;5.816;2023-05-12T00:16:28;100680.03;;;13.95;100.00
68994;BME280;56054;50.968;5.816;2023-05-12T00:19:28;100688.09;;;13.99;100.00
68994;BME280;56054;50.968;5.816;2023-05-12T00:22:29;100687.66;;;13.72;100.00
68994;BME280;56054;50.968;5.816;2023-05-12T00:25:30;100689.59;;;13.94;100.00
68994;BME280;56054;50.968;5.816;2023-05-12T00:28:30;100684.97;;;14.06;100.00
68994;BME280;56054;50.968;5.816;2023-05-12T00:31:31;100682.22;;;13.85;100.00
68994;BME280;56054;50.968;5.816;2023-05-12T00:34:31;100677.16;;;13.70;100.00
68994;BME280;56054;50.968;5.816;2023-05-12T00:37:31;100684.75;;;13.66;100.00
68994;BME280;56054;50.968;5.816;2023-05-12T00:40:32;100683.63;;;13.79;100.00
68994;BME280;56054;50.968;5.816;2023-05-12T00:43:32;100680.19;;;13.80;100.00
68994;BME280;56054;50.968;5.816;2023-05-12T00:46:33;100669.22;;;13.69;100.00
68994;BME280;56054;50.968;5.816;2023-05-12T00:56:02;100666.53;;;13.67;100.00
68994;BME280;56054;50.968;5.816;2023-05-12T01:03:11;100665.78;;;13.70;100.00
68994;BME280;56054;50.968;5.816;2023-05-12T01:06:17;100661.91;;;13.62;100.00
68994;BME280;56054;50.968;5.816;2023-05-12T01:09:21;100654.44;;;13.52;100.00
68994;BME280;56054;50.968;5.816;2023-05-12T01:12:22;100657.94;;;13.52;100.00
68994;BME280;56054;50.968;5.816;2023-05-12T01:15:23;100653.72;;;13.54;100.00
68994;BME280;56054;50.968;5.816;2023-05-12T01:18:25;100649.00;;;13.47;100.00
68994;BME280;56054;50.968;5.816;2023-05-12T01:21:26;100654.81;;;13.59;100.00
68994;BME280;56054;50.968;5.816;2023-05-12T01:24:29;100648.13;;;13.46;100.00
68994;BME280;56054;50.968;5.816;2023-05-12T01:27:32;100644.91;;;13.52;100.00
68994;BME280;56054;50.968;5.816;2023-05-12T01:30:33;100650.03;;;13.51;100.00
68994;BME280;56054;50.968;5.816;2023-05-12T01:33:36;100646.38;;;13.47;100.00
68994;BME280;56054;50.968;5.816;2023-05-12T01:36:37;100639.44;;;13.65;100.00
68994;BME280;56054;50.968;5.816;2023-05-12T01:39:38;100639.53;;;13.67;100.00
68994;BME280;56054;50.968;5.816;2023-05-12T01:42:40;100638.69;;;13.50;100.00
68994;BME280;56054;50.968;5.816;2023-05-12T01:45:43;100642.19;;;13.51;100.00
68994;BME280;56054;50.968;5.816;2023-05-12T01:48:44;100635.28;;;13.51;100.00
68994;BME280;56054;50.968;5.816;2023-05-12T01:51:44;100629.28;;;13.36;100.00
68994;BME280;56054;50.968;5.816;2023-05-12T01:54:44;100626.31;;;13.46;100.00
68994;BME280;56054;50.968;5.816;2023-05-12T01:57:46;100620.50;;;13.52;100.00
68994;BME280;56054;50.968;5.816;2023-05-12T02:00:47;100622.34;;;13.36;100.00
68994;BME280;56054;50.968;5.816;2023-05-12T02:03:51;100621.41;;;13.34;100.00
68994;BME280;56054;50.968;5.816;2023-05-12T02:06:52;100629.75;;;13.45;100.00
68994;BME280;56054;50.968;5.816;2023-05-12T02:09:53;100625.03;;;13.38;100.00
68994;BME280;56054;50.968;5.816;2023-05-12T02:12:55;100622.88;;;13.29;100.00
68994;BME280;56054;50.968;5.816;2023-05-12T02:15:55;100615.94;;;13.13;100.00
68994;BME280;56054;50.968;5.816;2023-05-12T02:18:56;100615.53;;;13.22;100.00
68994;BME280;56054;50.968;5.816;2023-05-12T02:21:57;100618.47;;;13.28;100.00
68994;BME280;56054;50.968;5.816;2023-05-12T02:24:57;100622.38;;;13.20;100.00
68994;BME280;56054;50.968;5.816;2023-05-12T02:27:58;100618.28;;;13.25;100.00
68994;BME280;56054;50.968;5.816;2023-05-12T02:30:58;100607.22;;;13.29;100.00
68994;BME280;56054;50.968;5.816;2023-05-12T02:33:59;100611.25;;;13.24;100.00
68994;BME280;56054;50.968;5.816;2023-05-12T02:37:03;100607.22;;;13.13;100.00
68994;BME280;56054;50.968;5.816;2023-05-12T02:40:05;100608.44;;;13.19;100.00
68994;BME280;56054;50.968;5.816;2023-05-12T02:43:05;100603.22;;;13.19;100.00
68994;BME280;56054;50.968;5.816;2023-05-12T02:46:07;100600.53;;;13.18;100.00
68994;BME280;56054;50.968;5.816;2023-05-12T02:49:10;100593.72;;;13.21;100.00
68994;BME280;56054;50.968;5.816;2023-05-12T02:52:10;100603.63;;;13.27;100.00
68994;BME280;56054;50.968;5.816;2023-05-12T02:55:11;100594.59;;;13.04;100.00
68994;BME280;56054;50.968;5.816;2023-05-12T02:58:11;100594.78;;;13.07;100.00
68994;BME280;56054;50.968;5.816;2023-05-12T03:01:12;100592.22;;;13.09;100.00
68994;BME280;56054;50.968;5.816;2023-05-12T03:04:14;100587.84;;;13.07;100.00
68994;BME280;56054;50.968;5.816;2023-05-12T03:07:16;100587.16;;;13.12;100.00
68994;BME280;56054;50.968;5.816;2023-05-12T03:10:17;100585.78;;;13.02;100.00
68994;BME280;56054;50.968;5.816;2023-05-12T03:13:18;100588.41;;;13.02;100.00
68994;BME280;56054;50.968;5.816;2023-05-12T03:16:18;100579.28;;;13.10;100.00
68994;BME280;56054;50.968;5.816;2023-05-12T03:19:19;100586.31;;;12.95;100.00
68994;BME280;56054;50.968;5.816;2023-05-12T03:22:19;100580.94;;;12.92;100.00
68994;BME280;56054;50.968;5.816;2023-05-12T03:25:20;100581.53;;;12.86;100.00
68994;BME280;56054;50.968;5.816;2023-05-12T03:28:21;100577.28;;;12.88;100.00
68994;BME280;56054;50.968;5.816;2023-05-12T03:31:21;100579.19;;;12.74;100.00
68994;BME280;56054;50.968;5.816;2023-05-12T03:34:22;100574.34;;;12.82;100.00
68994;BME280;56054;50.968;5.816;2023-05-12T03:37:22;100580.00;;;12.73;100.00
68994;BME280;56054;50.968;5.816;2023-05-12T03:40:23;100568.09;;;12.78;100.00
68994;BME280;56054;50.968;5.816;2023-05-12T03:43:23;100565.41;;;12.77;100.00
68994;BME280;56054;50.968;5.816;2023-05-12T03:46:30;100565.00;;;12.69;100.00
68994;BME280;56054;50.968;5.816;2023-05-12T03:49:30;100564.44;;;12.75;100.00
68994;BME280;56054;50.968;5.816;2023-05-12T03:52:31;100560.13;;;12.75;100.00
68994;BME280;56054;50.968;5.816;2023-05-12T03:55:31;100553.84;;;12.72;100.00
68994;BME280;56054;50.968;5.816;2023-05-12T03:58:32;100550.13;;;12.50;100.00
68994;BME280;56054;50.968;5.816;2023-05-12T04:01:32;100547.75;;;12.55;100.00
68994;BME280;56054;50.968;5.816;2023-05-12T04:04:34;100549.03;;;12.63;100.00
68994;BME280;56054;50.968;5.816;2023-05-12T04:07:35;100558.31;;;12.74;100.00
68994;BME280;56054;50.968;5.816;2023-05-12T04:10:39;100558.75;;;12.66;100.00
68994;BME280;56054;50.968;5.816;2023-05-12T04:13:39;100562.59;;;12.56;100.00
68994;BME280;56054;50.968;5.816;2023-05-12T04:16:41;100558.81;;;12.67;100.00
68994;BME280;56054;50.968;5.816;2023-05-12T04:19:41;100557.44;;;12.57;100.00
68994;BME280;56054;50.968;5.816;2023-05-12T04:22:42;100551.50;;;12.60;100.00
68994;BME280;56054;50.968;5.816;2023-05-12T04:25:42;100555.56;;;12.55;100.00
68994;BME280;56054;50.968;5.816;2023-05-12T04:28:43;100559.16;;;12.73;100.00
68994;BME280;56054;50.968;5.816;2023-05-12T04:31:43;100550.22;;;12.52;100.00
68994;BME280;56054;50.968;5.816;2023-05-12T04:34:44;100554.09;;;12.60;100.00
68994;BME280;56054;50.968;5.816;2023-05-12T04:37:45;100558.34;;;12.58;100.00
68994;BME280;56054;50.968;5.816;2023-05-12T04:40:45;100561.53;;;12.52;100.00
68994;BME280;56054;50.968;5.816;2023-05-12T04:43:46;100555.09;;;12.62;100.00
68994;BME280;56054;50.968;5.816;2023-05-12T04:46:48;100568.84;;;12.59;100.00
68994;BME280;56054;50.968;5.816;2023-05-12T04:49:48;100565.03;;;12.53;100.00
68994;BME280;56054;50.968;5.816;2023-05-12T04:52:49;100568.63;;;12.55;100.00
68994;BME280;56054;50.968;5.816;2023-05-12T04:55:51;100567.63;;;12.69;100.00
68994;BME280;56054;50.968;5.816;2023-05-12T04:58:51;100577.81;;;12.64;100.00
68994;BME280;56054;50.968;5.816;2023-05-12T05:01:52;100573.31;;;12.78;100.00
68994;BME280;56054;50.968;5.816;2023-05-12T05:04:53;100576.66;;;12.76;100.00
68994;BME280;56054;50.968;5.816;2023-05-12T05:07:57;100572.28;;;12.58;100.00
68994;BME280;56054;50.968;5.816;2023-05-12T05:10:58;100592.81;;;12.69;100.00
68994;BME280;56054;50.968;5.816;2023-05-12T05:14:00;100590.44;;;12.57;100.00
68994;BME280;56054;50.968;5.816;2023-05-12T05:17:01;100591.56;;;12.62;100.00
68994;BME280;56054;50.968;5.816;2023-05-12T05:20:02;100594.34;;;12.65;100.00
68994;BME280;56054;50.968;5.816;2023-05-12T05:23:07;100592.56;;;12.64;100.00
68994;BME280;56054;50.968;5.816;2023-05-12T05:26:08;100596.31;;;12.53;100.00
68994;BME280;56054;50.968;5.816;2023-05-12T05:29:08;100593.69;;;12.53;100.00
68994;BME280;56054;50.968;5.816;2023-05-12T05:32:09;100596.69;;;12.77;100.00
68994;BME280;56054;50.968;5.816;2023-05-12T05:35:10;100607.84;;;12.74;100.00
68994;BME280;56054;50.968;5.816;2023-05-12T05:38:15;100604.13;;;12.69;100.00
68994;BME280;56054;50.968;5.816;2023-05-12T05:41:15;100604.25;;;12.89;100.00
68994;BME280;56054;50.968;5.816;2023-05-12T05:44:25;100612.47;;;12.96;100.00
68994;BME280;56054;50.968;5.816;2023-05-12T05:47:27;100615.94;;;13.13;100.00
68994;BME280;56054;50.968;5.816;2023-05-12T05:50:28;100610.59;;;13.10;100.00
68994;BME280;56054;50.968;5.816;2023-05-12T05:56:48;100617.72;;;13.14;100.00
68994;BME280;56054;50.968;5.816;2023-05-12T05:59:49;100616.41;;;13.22;100.00
68994;BME280;56054;50.968;5.816;2023-05-12T06:02:50;100626.13;;;13.25;100.00
68994;BME280;56054;50.968;5.816;2023-05-12T06:05:53;100626.09;;;13.07;100.00
68994;BME280;56054;50.968;5.816;2023-05-12T06:08:54;100635.59;;;13.06;100.00
68994;BME280;56054;50.968;5.816;2023-05-12T06:11:55;100632.94;;;13.05;100.00
68994;BME280;56054;50.968;5.816;2023-05-12T06:14:55;100635.84;;;13.27;100.00
68994;BME280;56054;50.968;5.816;2023-05-12T06:17:56;100641.78;;;13.09;100.00
68994;BME280;56054;50.968;5.816;2023-05-12T06:20:57;100653.63;;;13.02;100.00
68994;BME280;56054;50.968;5.816;2023-05-12T06:23:57;100648.34;;;13.00;100.00
68994;BME280;56054;50.968;5.816;2023-05-12T06:26:58;100649.81;;;12.95;100.00
68994;BME280;56054;50.968;5.816;2023-05-12T06:29:58;100650.38;;;13.06;100.00
68994;BME280;56054;50.968;5.816;2023-05-12T06:32:59;100650.59;;;13.11;100.00
68994;BME280;56054;50.968;5.816;2023-05-12T06:36:01;100656.81;;;12.96;100.00
68994;BME280;56054;50.968;5.816;2023-05-12T06:39:02;100663.25;;;12.87;100.00
68994;BME280;56054;50.968;5.816;2023-05-12T06:42:02;100661.22;;;12.97;100.00
68994;BME280;56054;50.968;5.816;2023-05-12T06:45:15;100662.13;;;12.98;100.00
68994;BME280;56054;50.968;5.816;2023-05-12T06:48:15;100663.00;;;12.98;100.00
68994;BME280;56054;50.968;5.816;2023-05-12T06:51:16;100670.34;;;13.05;100.00
68994;BME280;56054;50.968;5.816;2023-05-12T06:54:16;100671.13;;;13.04;100.00
68994;BME280;56054;50.968;5.816;2023-05-12T06:57:18;100676.16;;;13.00;100.00
68994;BME280;56054;50.968;5.816;2023-05-12T07:00:18;100682.31;;;13.02;100.00
68994;BME280;56054;50.968;5.816;2023-05-12T07:03:19;100675.31;;;13.17;100.00
68994;BME280;56054;50.968;5.816;2023-05-12T07:06:20;100668.44;;;13.19;100.00
68994;BME280;56054;50.968;5.816;2023-05-12T07:09:21;100671.63;;;13.14;100.00
68994;BME280;56054;50.968;5.816;2023-05-12T07:12:21;100674.97;;;13.27;100.00
68994;BME280;56054;50.968;5.816;2023-05-12T07:15:22;100680.91;;;13.25;100.00
68994;BME280;56054;50.968;5.816;2023-05-12T07:18:22;100675.97;;;13.30;100.00
68994;BME280;56054;50.968;5.816;2023-05-12T07:21:23;100677.16;;;13.36;100.00
68994;BME280;56054;50.968;5.816;2023-05-12T07:24:23;100676.50;;;13.40;100.00
68994;BME280;56054;50.968;5.816;2023-05-12T07:27:24;100676.88;;;13.48;100.00
68994;BME280;56054;50.968;5.816;2023-05-12T07:30:24;100682.38;;;13.36;100.00
68994;BME280;56054;50.968;5.816;2023-05-12T07:33:25;100684.53;;;13.61;100.00
68994;BME280;56054;50.968;5.816;2023-05-12T07:36:25;100678.09;;;13.55;100.00
68994;BME280;56054;50.968;5.816;2023-05-12T07:39:25;100684.28;;;13.75;100.00
68994;BME280;56054;50.968;5.816;2023-05-12T07:42:26;100672.16;;;13.93;100.00
68994;BME280;56054;50.968;5.816;2023-05-12T07:45:26;100679.97;;;14.11;100.00
68994;BME280;56054;50.968;5.816;2023-05-12T07:48:55;100683.25;;;14.07;100.00
68994;BME280;56054;50.968;5.816;2023-05-12T07:58:54;100690.50;;;14.12;100.00
68994;BME280;56054;50.968;5.816;2023-05-12T08:01:56;100688.53;;;14.26;100.00
68994;BME280;56054;50.968;5.816;2023-05-12T08:04:56;100694.09;;;14.15;100.00
68994;BME280;56054;50.968;5.816;2023-05-12T08:07:56;100698.09;;;14.26;100.00
68994;BME280;56054;50.968;5.816;2023-05-12T08:10:57;100703.50;;;14.29;100.00
68994;BME280;56054;50.968;5.816;2023-05-12T08:13:58;100704.03;;;14.22;100.00
68994;BME280;56054;50.968;5.816;2023-05-12T08:17:06;100713.03;;;14.28;100.00
68994;BME280;56054;50.968;5.816;2023-05-12T08:20:09;100710.41;;;14.28;100.00
68994;BME280;56054;50.968;5.816;2023-05-12T08:23:10;100710.63;;;14.33;100.00
68994;BME280;56054;50.968;5.816;2023-05-12T08:26:10;100708.88;;;14.32;100.00
68994;BME280;56054;50.968;5.816;2023-05-12T08:29:11;100710.94;;;14.39;100.00
68994;BME280;56054;50.968;5.816;2023-05-12T08:32:11;100716.03;;;14.54;100.00
68994;BME280;56054;50.968;5.816;2023-05-12T08:35:12;100722.94;;;14.71;100.00
68994;BME280;56054;50.968;5.816;2023-05-12T08:38:12;100720.31;;;14.71;100.00
68994;BME280;56054;50.968;5.816;2023-05-12T08:41:18;100720.41;;;14.73;100.00
68994;BME280;56054;50.968;5.816;2023-05-12T08:44:22;100729.53;;;14.63;100.00
68994;BME280;56054;50.968;5.816;2023-05-12T08:47:24;100723.91;;;14.55;100.00
68994;BME280;56054;50.968;5.816;2023-05-12T08:50:25;100732.75;;;14.58;100.00
68994;BME280;56054;50.968;5.816;2023-05-12T08:53:26;100735.34;;;14.58;100.00
68994;BME280;56054;50.968;5.816;2023-05-12T08:56:34;100740.84;;;14.46;100.00
68994;BME280;56054;50.968;5.816;2023-05-12T08:59:36;100749.91;;;14.52;100.00
68994;BME280;56054;50.968;5.816;2023-05-12T09:02:39;100749.69;;;14.48;100.00
68994;BME280;56054;50.968;5.816;2023-05-12T09:05:40;100746.47;;;14.35;100.00
68994;BME280;56054;50.968;5.816;2023-05-12T09:08:41;100754.53;;;14.40;100.00
68994;BME280;56054;50.968;5.816;2023-05-12T09:11:42;100761.59;;;14.41;100.00
68994;BME280;56054;50.968;5.816;2023-05-12T09:14:44;100756.22;;;14.56;100.00
68994;BME280;56054;50.968;5.816;2023-05-12T09:17:45;100754.00;;;14.83;100.00
68994;BME280;56054;50.968;5.816;2023-05-12T09:20:45;100753.97;;;14.64;100.00
68994;BME280;56054;50.968;5.816;2023-05-12T09:23:56;100752.47;;;14.88;100.00
68994;BME280;56054;50.968;5.816;2023-05-12T09:26:57;100758.91;;;15.34;100.00
68994;BME280;56054;50.968;5.816;2023-05-12T09:29:57;100758.94;;;15.35;100.00
68994;BME280;56054;50.968;5.816;2023-05-12T09:33:24;100754.59;;;15.36;100.00
68994;BME280;56054;50.968;5.816;2023-05-12T09:36:24;100757.84;;;15.50;100.00
68994;BME280;56054;50.968;5.816;2023-05-12T09:39:25;100752.03;;;15.57;100.00
68994;BME280;56054;50.968;5.816;2023-05-12T09:42:29;100761.88;;;15.62;100.00
68994;BME280;56054;50.968;5.816;2023-05-12T09:45:32;100762.66;;;15.40;100.00
68994;BME280;56054;50.968;5.816;2023-05-12T09:48:33;100771.84;;;15.31;100.00
68994;BME280;56054;50.968;5.816;2023-05-12T09:51:33;100757.72;;;15.68;100.00
68994;BME280;56054;50.968;5.816;2023-05-12T09:54:41;100765.19;;;15.99;100.00
68994;BME280;56054;50.968;5.816;2023-05-12T09:57:43;100759.19;;;16.01;100.00
68994;BME280;56054;50.968;5.816;2023-05-12T10:00:43;100769.75;;;16.03;100.00
68994;BME280;56054;50.968;5.816;2023-05-12T10:03:47;100768.94;;;15.84;100.00
68994;BME280;56054;50.968;5.816;2023-05-12T10:06:48;100773.69;;;15.72;100.00
68994;BME280;56054;50.968;5.816;2023-05-12T10:09:49;100781.13;;;16.03;100.00
68994;BME280;56054;50.968;5.816;2023-05-12T10:12:49;100766.44;;;16.07;100.00
68994;BME280;56054;50.968;5.816;2023-05-12T10:15:51;100767.16;;;16.25;100.00
68994;BME280;56054;50.968;5.816;2023-05-12T10:18:54;100778.53;;;16.47;100.00
68994;BME280;56054;50.968;5.816;2023-05-12T10:22:01;100781.34;;;16.74;100.00
68994;BME280;56054;50.968;5.816;2023-05-12T10:25:02;100766.06;;;16.64;100.00
68994;BME280;56054;50.968;5.816;2023-05-12T10:28:03;100767.38;;;16.75;100.00
68994;BME280;56054;50.968;5.816;2023-05-12T10:31:06;100775.81;;;16.45;100.00
68994;BME280;56054;50.968;5.816;2023-05-12T10:34:15;100779.06;;;16.61;100.00
68994;BME280;56054;50.968;5.816;2023-05-12T10:37:16;100781.13;;;16.47;100.00
68994;BME280;56054;50.968;5.816;2023-05-12T10:40:23;100781.56;;;16.58;100.00
68994;BME280;56054;50.968;5.816;2023-05-12T10:43:26;100789.56;;;16.61;100.00
68994;BME280;56054;50.968;5.816;2023-05-12T10:46:27;100791.66;;;16.69;100.00
68994;BME280;56054;50.968;5.816;2023-05-12T10:49:38;100795.63;;;16.81;100.00
68994;BME280;56054;50.968;5.816;2023-05-12T10:52:40;100794.78;;;16.82;100.00
68994;BME280;56054;50.968;5.816;2023-05-12T10:55:54;100798.94;;;16.99;100.00
68994;BME280;56054;50.968;5.816;2023-05-12T10:59:20;100789.69;;;17.09;100.00
68994;BME280;56054;50.968;5.816;2023-05-12T11:02:23;100794.66;;;17.01;100.00
68994;BME280;56054;50.968;5.816;2023-05-12T11:05:32;100793.88;;;17.04;100.00
68994;BME280;56054;50.968;5.816;2023-05-12T11:08:35;100789.69;;;17.09;100.00
68994;BME280;56054;50.968;5.816;2023-05-12T11:11:36;100797.38;;;17.27;100.00
68994;BME280;56054;50.968;5.816;2023-05-12T11:14:38;100789.34;;;17.00;98.98
68994;BME280;56054;50.968;5.816;2023-05-12T11:17:40;100794.13;;;17.34;99.07
68994;BME280;56054;50.968;5.816;2023-05-12T11:20:41;100798.97;;;17.95;98.05
68994;BME280;56054;50.968;5.816;2023-05-12T11:23:41;100795.84;;;17.82;95.89
68994;BME280;56054;50.968;5.816;2023-05-12T11:26:42;100796.72;;;17.82;94.51
68994;BME280;56054;50.968;5.816;2023-05-12T11:29:43;100799.00;;;17.97;96.29
68994;BME280;56054;50.968;5.816;2023-05-12T11:32:43;100803.31;;;17.95;94.41
68994;BME280;56054;50.968;5.816;2023-05-12T11:35:44;100805.44;;;18.07;95.83
68994;BME280;56054;50.968;5.816;2023-05-12T11:38:48;100795.00;;;18.35;91.51
68994;BME280;56054;50.968;5.816;2023-05-12T11:41:50;100796.41;;;18.78;93.05
68994;BME280;56054;50.968;5.816;2023-05-12T11:44:50;100803.91;;;18.68;90.26
68994;BME280;56054;50.968;5.816;2023-05-12T11:47:52;100802.66;;;18.55;89.83
68994;BME280;56054;50.968;5.816;2023-05-12T11:50:52;100803.41;;;18.78;88.97
68994;BME280;56054;50.968;5.816;2023-05-12T11:53:53;100812.78;;;18.43;87.85
68994;BME280;56054;50.968;5.816;2023-05-12T11:56:55;100817.16;;;18.15;88.39
68994;BME280;56054;50.968;5.816;2023-05-12T12:00:06;100808.84;;;18.83;87.37
68994;BME280;56054;50.968;5.816;2023-05-12T12:03:08;100819.47;;;18.60;85.54
68994;BME280;56054;50.968;5.816;2023-05-12T12:06:09;100824.22;;;18.99;83.91
68994;BME280;56054;50.968;5.816;2023-05-12T12:09:09;100821.72;;;19.02;82.49
68994;BME280;56054;50.968;5.816;2023-05-12T12:12:10;100827.53;;;18.92;82.50
68994;BME280;56054;50.968;5.816;2023-05-12T12:15:11;100834.88;;;19.32;80.28
68994;BME280;56054;50.968;5.816;2023-05-12T12:18:11;100836.31;;;19.51;78.94
68994;BME280;56054;50.968;5.816;2023-05-12T12:21:11;100846.09;;;19.25;77.49
68994;BME280;56054;50.968;5.816;2023-05-12T12:24:12;100846.16;;;19.28;76.19
68994;BME280;56054;50.968;5.816;2023-05-12T12:27:12;100840.09;;;19.31;73.26
68994;BME280;56054;50.968;5.816;2023-05-12T12:30:14;100850.91;;;19.40;72.28
68994;BME280;56054;50.968;5.816;2023-05-12T12:33:14;100841.41;;;19.45;72.27
68994;BME280;56054;50.968;5.816;2023-05-12T12:36:15;100838.19;;;19.87;70.96
68994;BME280;56054;50.968;5.816;2023-05-12T12:39:16;100841.78;;;19.89;68.25
68994;BME280;56054;50.968;5.816;2023-05-12T12:42:17;100848.09;;;20.29;70.08
68994;BME280;56054;50.968;5.816;2023-05-12T12:45:17;100848.00;;;20.59;67.73
68994;BME280;56054;50.968;5.816;2023-05-12T12:48:18;100861.25;;;19.94;66.39
68994;BME280;56054;50.968;5.816;2023-05-12T12:51:18;100859.25;;;19.55;68.42
68994;BME280;56054;50.968;5.816;2023-05-12T12:54:20;100858.16;;;19.47;69.24
68994;BME280;56054;50.968;5.816;2023-05-12T13:04:37;100860.88;;;19.50;71.25
68994;BME280;56054;50.968;5.816;2023-05-12T13:07:37;100858.69;;;19.65;70.47
68994;BME280;56054;50.968;5.816;2023-05-12T13:10:38;100861.09;;;19.28;71.69
68994;BME280;56054;50.968;5.816;2023-05-12T13:13:38;100856.72;;;19.58;73.35
68994;BME280;56054;50.968;5.816;2023-05-12T13:16:39;100865.44;;;19.56;70.41
68994;BME280;56054;50.968;5.816;2023-05-12T13:19:39;100859.66;;;20.01;69.58
68994;BME280;56054;50.968;5.816;2023-05-12T13:22:41;100856.72;;;20.23;68.95
68994;BME280;56054;50.968;5.816;2023-05-12T13:25:41;100862.09;;;19.93;67.61
68994;BME280;56054;50.968;5.816;2023-05-12T13:28:42;100856.16;;;20.02;69.09
68994;BME280;56054;50.968;5.816;2023-05-12T13:31:42;100861.84;;;19.84;70.99
68994;BME280;56054;50.968;5.816;2023-05-12T13:34:43;100869.25;;;19.97;68.03
68994;BME280;56054;50.968;5.816;2023-05-12T13:37:43;100858.44;;;20.21;67.94
68994;BME280;56054;50.968;5.816;2023-05-12T13:40:44;100848.81;;;20.23;68.79
68994;BME280;56054;50.968;5.816;2023-05-12T13:43:48;100856.03;;;19.96;67.65
68994;BME280;56054;50.968;5.816;2023-05-12T13:46:48;100855.75;;;19.85;68.76
68994;BME280;56054;50.968;5.816;2023-05-12T13:49:49;100861.44;;;20.02;68.03
68994;BME280;56054;50.968;5.816;2023-05-12T13:52:49;100859.38;;;20.23;66.61
68994;BME280;56054;50.968;5.816;2023-05-12T13:55:49;100882.59;;;20.37;65.25
68994;BME280;56054;50.968;5.816;2023-05-12T13:58:51;100868.16;;;20.22;64.86
68994;BME280;56054;50.968;5.816;2023-05-12T14:01:52;100871.56;;;20.18;66.03
68994;BME280;56054;50.968;5.816;2023-05-12T14:04:53;100868.91;;;20.17;66.09
68994;BME280;56054;50.968;5.816;2023-05-12T14:07:54;100869.97;;;19.92;64.83
68994;BME280;56054;50.968;5.816;2023-05-12T14:10:57;100880.34;;;20.19;68.79
68994;BME280;56054;50.968;5.816;2023-05-12T14:13:58;100885.28;;;19.73;72.17
68994;BME280;56054;50.968;5.816;2023-05-12T14:16:58;100881.66;;;19.41;74.34
68994;BME280;56054;50.968;5.816;2023-05-12T14:19:58;100888.47;;;19.33;76.01
68994;BME280;56054;50.968;5.816;2023-05-12T14:22:59;100895.31;;;18.99;78.99
68994;BME280;56054;50.968;5.816;2023-05-12T14:25:59;100902.59;;;18.79;85.04
68994;BME280;56054;50.968;5.816;2023-05-12T14:29:00;100891.22;;;18.54;92.73
68994;BME280;56054;50.968;5.816;2023-05-12T14:32:00;100900.25;;;18.35;98.25
68994;BME280;56054;50.968;5.816;2023-05-12T14:35:03;100893.28;;;18.37;100.00
68994;BME280;56054;50.968;5.816;2023-05-12T14:38:03;100900.94;;;18.30;100.00
68994;BME280;56054;50.968;5.816;2023-05-12T14:41:04;100892.03;;;18.26;100.00
68994;BME280;56054;50.968;5.816;2023-05-12T14:44:04;100885.66;;;18.45;100.00
68994;BME280;56054;50.968;5.816;2023-05-12T14:47:05;100875.59;;;18.33;100.00
68994;BME280;56054;50.968;5.816;2023-05-12T14:50:06;100888.75;;;18.59;100.00
68994;BME280;56054;50.968;5.816;2023-05-12T14:53:06;100890.34;;;18.54;100.00
68994;BME280;56054;50.968;5.816;2023-05-12T14:59:51;100901.88;;;18.85;100.00
68994;BME280;56054;50.968;5.816;2023-05-12T15:02:51;100888.28;;;18.98;100.00
68994;BME280;56054;50.968;5.816;2023-05-12T15:05:51;100889.19;;;18.98;100.00
68994;BME280;56054;50.968;5.816;2023-05-12T15:08:52;100882.38;;;19.05;100.00
68994;BME280;56054;50.968;5.816;2023-05-12T15:11:52;100878.31;;;19.16;99.49
68994;BME280;56054;50.968;5.816;2023-05-12T15:14:53;100879.09;;;19.12;97.79
68994;BME280;56054;50.968;5.816;2023-05-12T15:17:53;100883.31;;;19.07;97.33
68994;BME280;56054;50.968;5.816;2023-05-12T15:20:54;100880.91;;;19.15;94.00
68994;BME280;56054;50.968;5.816;2023-05-12T15:23:54;100876.47;;;19.14;96.56
68994;BME280;56054;50.968;5.816;2023-05-12T15:26:54;100885.75;;;19.01;94.10
68994;BME280;56054;50.968;5.816;2023-05-12T15:29:55;100881.59;;;19.09;93.48
68994;BME280;56054;50.968;5.816;2023-05-12T15:32:58;100878.72;;;19.01;94.47
68994;BME280;56054;50.968;5.816;2023-05-12T15:35:58;100882.50;;;19.10;90.59
68994;BME280;56054;50.968;5.816;2023-05-12T15:38:58;100892.25;;;19.12;87.87
68994;BME280;56054;50.968;5.816;2023-05-12T15:41:59;100882.16;;;19.28;88.49
68994;BME280;56054;50.968;5.816;2023-05-12T15:44:59;100885.47;;;19.20;88.30
68994;BME280;56054;50.968;5.816;2023-05-12T15:48:00;100885.09;;;19.37;88.08
68994;BME280;56054;50.968;5.816;2023-05-12T15:51:01;100886.84;;;19.36;86.77
68994;BME280;56054;50.968;5.816;2023-05-12T15:54:03;100877.66;;;19.23;83.21
68994;BME280;56054;50.968;5.816;2023-05-12T15:57:04;100884.59;;;19.50;87.01
68994;BME280;56054;50.968;5.816;2023-05-12T16:00:06;100878.34;;;19.46;85.80
68994;BME280;56054;50.968;5.816;2023-05-12T16:03:13;100886.91;;;19.39;82.77
68994;BME280;56054;50.968;5.816;2023-05-12T16:06:16;100891.09;;;19.33;82.16
68994;BME280;56054;50.968;5.816;2023-05-12T16:09:17;100889.13;;;19.25;84.42
68994;BME280;56054;50.968;5.816;2023-05-12T16:12:17;100899.28;;;19.13;82.08